Time;durP1;ratioP1;P1;durP2;ratioP2;P2;SDS_P1;SDS_P2;PMS_P1;PMS_P2;Temp;Humidity;BMP_temperature;BMP_pressure;BME280_temperature;BME280_humidity;BME280_pressure;Samples;Min_cycle;Max_cycle;Signal;HPM_P1;HPM_P2
2020/12/21 00:01:21;;;;;;;11.70;7.15;;;179.30;1868.80;;;;;;5071810;28;20069;-55
2020/12/21 00:03:46;;;;;;;11.52;6.60;;;179.30;1843.20;;;;;;5072100;28;20032;-53
2020/12/21 00:06:14;;;;;;;14.85;8.40;;;179.30;1843.20;;;;;;5069401;28;20033;-55
2020/12/21 00:08:39;;;;;;;12.48;7.65;;;179.40;1868.80;;;;;;5071540;28;20035;-54
2020/12/21 00:11:05;;;;;;;11.50;7.68;;;179.40;1843.20;;;;;;5070630;28;20033;-56
2020/12/21 00:13:31;;;;;;;11.93;7.63;;;179.30;1868.80;;;;;;5069630;28;20020;-54
2020/12/21 00:15:57;;;;;;;10.23;7.20;;;179.30;1868.80;;;;;;5071084;28;20043;-54
2020/12/21 00:18:23;;;;;;;11.77;7.75;;;179.30;1843.20;;;;;;5070985;28;20109;-53
2020/12/21 00:20:49;;;;;;;15.13;8.23;;;179.40;1843.20;;;;;;5071362;28;20095;-54
2020/12/21 00:23:15;;;;;;;14.63;8.40;;;179.30;1843.20;;;;;;5071084;28;20028;-53
2020/12/21 00:25:41;;;;;;;12.35;7.32;;;179.40;1843.20;;;;;;5070824;28;20379;-54
2020/12/21 00:28:07;;;;;;;13.07;8.07;;;179.50;1843.20;;;;;;5071037;28;20043;-53
2020/12/21 00:30:32;;;;;;;14.65;8.32;;;179.30;1843.20;;;;;;5071670;28;20035;-54
2020/12/21 00:32:58;;;;;;;13.13;8.52;;;179.30;1843.20;;;;;;5071742;28;20032;-54
2020/12/21 00:35:24;;;;;;;11.88;8.35;;;179.30;1843.20;;;;;;5071537;28;20470;-53
2020/12/21 00:37:49;;;;;;;12.15;8.10;;;179.30;1843.20;;;;;;5071273;28;20028;-53
2020/12/21 00:40:15;;;;;;;11.43;7.43;;;179.20;1868.80;;;;;;5071924;28;20024;-54
2020/12/21 00:42:44;;;;;;;10.23;7.75;;;179.30;1843.20;;;;;;5073855;28;20070;-53
2020/12/21 00:45:10;;;;;;;12.50;8.85;;;179.30;1843.20;;;;;;5075568;28;20481;-54
2020/12/21 00:47:36;;;;;;;13.48;8.23;;;179.30;1843.20;;;;;;5075579;28;20029;-53
2020/12/21 00:50:03;;;;;;;14.18;7.95;;;179.40;1843.20;;;;;;5075698;28;20471;-53
2020/12/21 00:52:28;;;;;;;14.95;8.30;;;179.40;1843.20;;;;;;5075631;28;20475;-53
2020/12/21 00:54:54;;;;;;;15.90;9.00;;;179.30;1843.20;;;;;;5057326;28;20045;-53
2020/12/21 00:57:20;;;;;;;12.05;7.57;;;179.40;1843.20;;;;;;5075902;28;20462;-54
2020/12/21 00:59:45;;;;;;;12.38;8.55;;;179.40;1843.20;;;;;;5075733;28;20470;-54
2020/12/21 01:02:11;;;;;;;14.32;8.82;;;179.20;1868.80;;;;;;5075337;28;20052;-54
2020/12/21 01:04:37;;;;;;;13.25;8.93;;;179.30;1843.20;;;;;;5067273;28;20033;-54
2020/12/21 01:07:03;;;;;;;14.45;9.00;;;179.30;1843.20;;;;;;5071378;28;20060;-54
2020/12/21 01:09:29;;;;;;;14.32;8.23;;;179.20;1868.80;;;;;;5075506;28;20071;-54
2020/12/21 01:11:55;;;;;;;16.23;9.05;;;179.30;1843.20;;;;;;5056951;28;20063;-53
2020/12/21 01:14:20;;;;;;;12.48;8.32;;;179.20;1868.80;;;;;;5075159;28;20020;-53
2020/12/21 01:16:46;;;;;;;13.15;8.35;;;179.20;1868.80;;;;;;5075199;28;20021;-53
2020/12/21 01:19:12;;;;;;;14.45;9.15;;;179.20;1868.80;;;;;;5075098;28;20436;-54
2020/12/21 01:21:37;;;;;;;14.73;9.00;;;179.30;1868.80;;;;;;5075058;28;20027;-54
2020/12/21 01:24:03;;;;;;;15.45;9.07;;;179.20;1868.80;;;;;;5074907;28;20110;-53
2020/12/21 01:26:30;;;;;;;16.15;9.50;;;179.20;1868.80;;;;;;5074912;28;20024;-53
2020/12/21 01:28:56;;;;;;;13.10;8.32;;;154.50;1868.80;;;;;;5075286;28;20032;-53
2020/12/21 01:31:23;;;;;;;15.52;9.68;;;179.20;1868.80;;;;;;5074412;28;20116;-55
2020/12/21 01:33:49;;;;;;;15.32;8.90;;;179.30;1868.80;;;;;;5074991;28;20068;-53
2020/12/21 01:36:18;;;;;;;14.57;8.90;;;179.20;1894.40;;;;;;5074454;28;20028;-53
2020/12/21 01:38:45;;;;;;;14.85;8.18;;;179.30;1868.80;;;;;;5075029;28;20032;-53
2020/12/21 01:41:10;;;;;;;12.55;7.70;;;179.40;1868.80;;;;;;5074179;28;20024;-52
2020/12/21 01:43:36;;;;;;;15.23;8.10;;;179.30;1868.80;;;;;;5074888;28;20035;-53
2020/12/21 01:46:08;;;;;;;15.50;9.13;;;179.30;1868.80;;;;;;5073080;28;20029;-52
2020/12/21 01:48:35;;;;;;;14.50;9.20;;;179.30;1868.80;;;;;;5074490;28;20039;-54
2020/12/21 01:51:01;;;;;;;12.55;7.90;;;179.30;1868.80;;;;;;5074268;28;20051;-53
2020/12/21 01:53:27;;;;;;;15.07;9.13;;;179.30;1843.20;;;;;;5074343;28;20028;-53
2020/12/21 01:55:58;;;;;;;14.43;8.02;;;179.20;1843.20;;;;;;5074238;28;20024;-53
2020/12/21 01:58:24;;;;;;;14.35;9.68;;;179.30;1843.20;;;;;;5074406;28;20064;-54
2020/12/21 02:00:49;;;;;;;15.55;8.85;;;179.20;1843.20;;;;;;5074627;28;20509;-53
2020/12/21 02:03:15;;;;;;;12.98;7.95;;;154.40;1843.20;;;;;;5074064;28;20064;-52
2020/12/21 02:05:41;;;;;;;13.35;8.50;;;154.40;1894.40;;;;;;5074012;28;20110;-54
2020/12/21 02:08:07;;;;;;;12.00;7.93;;;154.50;1868.80;;;;;;5074347;28;20063;-54
2020/12/21 02:10:33;;;;;;;12.88;7.80;;;154.40;1868.80;;;;;;5074054;28;20070;-54
2020/12/21 02:12:58;;;;;;;11.55;7.63;;;154.50;1868.80;;;;;;5055595;28;20593;-53
2020/12/21 02:15:24;;;;;;;15.18;8.10;;;179.20;1868.80;;;;;;5074082;28;20056;-55
2020/12/21 02:17:52;;;;;;;15.95;8.93;;;154.50;1894.40;;;;;;5055738;28;20040;-54
2020/12/21 02:20:19;;;;;;;13.57;8.10;;;154.50;1894.40;;;;;;5056082;28;20115;-54
2020/12/21 02:22:45;;;;;;;14.73;9.05;;;154.50;1894.40;;;;;;5073785;28;20036;-54
2020/12/21 02:25:10;;;;;;;13.20;7.93;;;154.40;1920.00;;;;;;5073866;28;20589;-53
2020/12/21 02:27:36;;;;;;;14.55;8.52;;;154.40;1894.40;;;;;;5073845;28;20358;-53
2020/12/21 02:30:02;;;;;;;12.13;8.05;;;154.50;1894.40;;;;;;5073970;28;20374;-53
2020/12/21 02:32:28;;;;;;;12.50;7.82;;;154.50;1868.80;;;;;;5073448;28;20355;-54
2020/12/21 02:34:53;;;;;;;13.57;9.07;;;154.50;1868.80;;;;;;5073906;28;20028;-54
2020/12/21 02:37:19;;;;;;;12.57;7.60;;;154.40;1894.40;;;;;;5071955;28;20157;-54
2020/12/21 02:39:45;;;;;;;14.30;7.53;;;154.40;1894.40;;;;;;5073719;28;20048;-56
2020/12/21 02:42:10;;;;;;;12.25;7.63;;;154.50;1868.80;;;;;;5073330;28;20051;-53
2020/12/21 02:44:36;;;;;;;13.93;8.23;;;154.50;1868.80;;;;;;5073243;28;20038;-54
2020/12/21 02:47:01;;;;;;;13.38;7.80;;;154.50;1868.80;;;;;;5073381;28;20029;-54
2020/12/21 02:49:27;;;;;;;13.77;8.10;;;179.20;1868.80;;;;;;5073380;28;20514;-54
2020/12/21 02:51:53;;;;;;;13.05;7.70;;;154.50;1868.80;;;;;;5073311;28;20390;-53
2020/12/21 02:54:19;;;;;;;14.57;8.50;;;154.50;1868.80;;;;;;5073571;28;20462;-53
2020/12/21 02:56:49;;;;;;;13.45;7.93;;;179.20;1843.20;;;;;;5073124;28;20023;-53
2020/12/21 02:59:15;;;;;;;13.02;8.23;;;179.30;1843.20;;;;;;5073003;28;20028;-54
2020/12/21 03:01:40;;;;;;;12.48;7.82;;;179.30;1817.60;;;;;;5073306;28;20052;-54
2020/12/21 03:04:06;;;;;;;12.25;7.43;;;179.40;1817.60;;;;;;5047165;28;20052;-54
2020/12/21 03:06:32;;;;;;;12.25;7.28;;;179.30;1817.60;;;;;;5067198;28;20064;-54
2020/12/21 03:08:57;;;;;;;15.07;7.75;;;179.40;1817.60;;;;;;5055134;28;20032;-53
2020/12/21 03:11:23;;;;;;;12.82;8.00;;;179.40;1817.60;;;;;;5054551;28;20036;-54
2020/12/21 03:13:48;;;;;;;13.55;7.57;;;179.40;1817.60;;;;;;5054989;28;20105;-54
2020/12/21 03:16:14;;;;;;;11.50;7.30;;;179.40;1792.00;;;;;;5072649;28;20105;-53
2020/12/21 03:18:40;;;;;;;13.43;7.70;;;179.40;1792.00;;;;;;5072929;28;20078;-54
2020/12/21 03:21:05;;;;;;;12.98;8.07;;;179.30;1817.60;;;;;;5072567;28;20036;-54
2020/12/21 03:23:31;;;;;;;12.52;7.78;;;179.30;1817.60;;;;;;5072821;28;20031;-53
2020/12/21 03:25:57;;;;;;;12.00;7.05;;;179.30;1817.60;;;;;;5072739;28;20028;-54
2020/12/21 03:28:22;;;;;;;12.00;7.32;;;179.30;1817.60;;;;;;5072506;28;20028;-54
2020/12/21 03:30:48;;;;;;;12.73;7.25;;;179.40;1792.00;;;;;;5072790;28;20023;-53
2020/12/21 03:33:14;;;;;;;11.35;7.45;;;179.40;1817.60;;;;;;5070781;28;20097;-54
2020/12/21 03:35:39;;;;;;;10.65;6.45;;;179.40;1792.00;;;;;;5071286;28;20024;-53
2020/12/21 03:38:05;;;;;;;13.13;7.80;;;179.40;1792.00;;;;;;5072527;28;20119;-54
2020/12/21 03:40:31;;;;;;;13.43;7.82;;;179.40;1792.00;;;;;;5072563;28;20025;-54
2020/12/21 03:42:56;;;;;;;12.23;7.85;;;179.30;1792.00;;;;;;5072240;28;20033;-53
2020/12/21 03:45:22;;;;;;;13.68;8.02;;;179.30;1792.00;;;;;;5072397;28;20103;-54
2020/12/21 03:47:48;;;;;;;11.90;6.95;;;179.30;1817.60;;;;;;5054386;28;20059;-53
2020/12/21 03:50:13;;;;;;;13.20;7.22;;;179.20;1817.60;;;;;;5072214;28;20059;-53
2020/12/21 03:52:39;;;;;;;13.88;7.57;;;154.50;1843.20;;;;;;5072526;28;20473;-54
2020/12/21 03:55:05;;;;;;;11.05;6.55;;;154.50;1843.20;;;;;;5072446;28;20078;-54
2020/12/21 03:57:31;;;;;;;10.75;6.28;;;179.20;1817.60;;;;;;5072295;28;20039;-54
2020/12/21 03:59:56;;;;;;;13.77;7.45;;;179.30;1817.60;;;;;;5072742;28;20027;-54
2020/12/21 04:02:22;;;;;;;11.07;6.75;;;179.20;1817.60;;;;;;5072339;28;20115;-53
2020/12/21 04:04:49;;;;;;;15.15;7.97;;;179.30;1817.60;;;;;;5072455;28;20474;-53
2020/12/21 04:07:15;;;;;;;12.50;7.38;;;154.50;1817.60;;;;;;5071687;28;20097;-53
2020/12/21 04:09:40;;;;;;;12.10;7.72;;;154.50;1843.20;;;;;;5072483;28;20103;-54
2020/12/21 04:12:06;;;;;;;12.05;7.70;;;154.50;1843.20;;;;;;5072034;28;20025;-54
2020/12/21 04:14:31;;;;;;;13.40;7.05;;;154.50;1817.60;;;;;;5072472;28;20012;-54
2020/12/21 04:16:57;;;;;;;10.70;6.93;;;179.20;1817.60;;;;;;5074311;28;20347;-54
2020/12/21 04:19:23;;;;;;;12.20;7.43;;;179.20;1817.60;;;;;;5076474;28;20471;-53
2020/12/21 04:21:48;;;;;;;10.98;6.72;;;179.20;1817.60;;;;;;5076352;28;20475;-54
2020/12/21 04:24:14;;;;;;;12.43;7.75;;;179.20;1817.60;;;;;;5076275;28;20031;-54
2020/12/21 04:26:40;;;;;;;11.98;7.80;;;154.40;1843.20;;;;;;5076101;28;20025;-54
2020/12/21 04:29:05;;;;;;;13.95;7.63;;;179.20;1817.60;;;;;;5076185;28;20036;-54
2020/12/21 04:31:31;;;;;;;10.95;6.53;;;179.20;1817.60;;;;;;5076064;28;20029;-54
2020/12/21 04:33:56;;;;;;;13.25;7.20;;;154.50;1843.20;;;;;;5076155;28;20037;-54
2020/12/21 04:36:22;;;;;;;15.77;9.48;;;179.30;1817.60;;;;;;5075621;28;20021;-53
2020/12/21 04:38:53;;;;;;;11.95;7.03;;;154.40;1843.20;;;;;;5076072;28;20111;-53
2020/12/21 04:41:18;;;;;;;11.95;7.45;;;154.50;1843.20;;;;;;5075720;28;20021;-53
2020/12/21 04:43:44;;;;;;;11.38;7.28;;;154.50;1843.20;;;;;;5075844;28;20170;-53
2020/12/21 04:46:10;;;;;;;11.43;6.75;;;179.20;1817.60;;;;;;5075472;28;20036;-54
2020/12/21 04:48:41;;;;;;;11.75;7.00;;;154.50;1817.60;;;;;;5075693;28;20024;-53
2020/12/21 04:51:08;;;;;;;10.60;6.68;;;179.20;1817.60;;;;;;5075889;28;20056;-55
2020/12/21 04:53:36;;;;;;;12.02;7.65;;;179.30;1817.60;;;;;;5075606;28;20535;-53
2020/12/21 04:56:02;;;;;;;10.40;7.10;;;179.30;1792.00;;;;;;5075683;28;20060;-55
2020/12/21 04:58:28;;;;;;;10.52;6.35;;;154.40;1843.20;;;;;;5075143;28;20079;-53
2020/12/21 05:00:53;;;;;;;14.80;7.53;;;154.50;1817.60;;;;;;5075341;28;20096;-53
2020/12/21 05:03:19;;;;;;;13.20;6.90;;;154.40;1843.20;;;;;;5057367;28;20040;-53
2020/12/21 05:05:45;;;;;;;12.85;7.38;;;154.40;1843.20;;;;;;5075273;28;20040;-54
2020/12/21 05:08:24;;;;;;;14.75;8.52;;;154.40;1843.20;;;;;;5075478;28;20028;-54
2020/12/21 05:10:58;;;;;;;11.40;7.38;;;154.50;1843.20;;;;;;5061747;28;20016;-53
2020/12/21 05:13:24;;;;;;;15.52;7.65;;;154.50;1817.60;;;;;;5056977;28;20051;-53
2020/12/21 05:15:54;;;;;;;11.75;7.35;;;154.50;1843.20;;;;;;5074935;28;20092;-53
2020/12/21 05:18:25;;;;;;;13.85;7.78;;;179.30;1817.60;;;;;;5075383;28;20435;-52
2020/12/21 05:20:57;;;;;;;13.70;7.35;;;179.40;1817.60;;;;;;5075204;28;20029;-52
2020/12/21 05:23:23;;;;;;;11.05;6.60;;;179.40;1817.60;;;;;;5057436;28;20024;-53
2020/12/21 05:26:04;;;;;;;13.38;7.57;;;179.40;1817.60;;;;;;5074900;28;20489;-54
2020/12/21 05:28:32;;;;;;;10.80;6.65;;;179.50;1792.00;;;;;;5074365;28;20042;-54
2020/12/21 05:31:00;;;;;;;10.40;6.50;;;179.30;1843.20;;;;;;5074959;28;20020;-53
2020/12/21 05:33:26;;;;;;;12.10;7.40;;;179.30;1817.60;;;;;;5074951;28;20028;-53
2020/12/21 05:35:56;;;;;;;13.20;7.63;;;179.40;1817.60;;;;;;5073176;28;20490;-53
2020/12/21 05:38:27;;;;;;;13.60;7.30;;;179.20;1817.60;;;;;;5074825;28;20033;-54
2020/12/21 05:41:06;;;;;;;14.57;7.97;;;179.30;1817.60;;;;;;5056386;28;20024;-54
2020/12/21 05:43:32;;;;;;;12.48;7.60;;;179.30;1817.60;;;;;;5074845;28;20382;-55
2020/12/21 05:46:13;;;;;;;14.35;8.60;;;179.30;1843.20;;;;;;5074665;28;20036;-53
2020/12/21 05:48:41;;;;;;;12.05;7.25;;;179.20;1843.20;;;;;;5074613;28;20021;-54
2020/12/21 05:51:08;;;;;;;12.70;8.25;;;179.20;1843.20;;;;;;5074407;28;20074;-54
2020/12/21 05:53:39;;;;;;;13.60;7.82;;;179.30;1843.20;;;;;;5075033;28;20028;-54
2020/12/21 05:56:05;;;;;;;12.15;7.97;;;179.20;1843.20;;;;;;5074391;28;20478;-54
2020/12/21 05:58:33;;;;;;;14.80;9.20;;;154.50;1843.20;;;;;;5074661;28;20025;-54
2020/12/21 06:01:01;;;;;;;14.52;8.43;;;154.30;1894.40;;;;;;5074202;28;20336;-53
2020/12/21 06:03:37;;;;;;;12.43;7.70;;;154.40;1868.80;;;;;;5056451;28;20033;-54
2020/12/21 06:06:07;;;;;;;12.70;8.23;;;154.50;1868.80;;;;;;5074284;28;20053;-54
2020/12/21 06:08:35;;;;;;;13.80;8.57;;;154.50;1868.80;;;;;;5074248;28;20385;-54
2020/12/21 06:11:12;;;;;;;15.02;8.73;;;154.40;1894.40;;;;;;5073857;28;20056;-54
2020/12/21 06:13:41;;;;;;;16.55;8.10;;;154.40;1894.40;;;;;;5074310;28;20059;-54
2020/12/21 06:16:08;;;;;;;12.70;8.15;;;154.40;1894.40;;;;;;5073786;28;20020;-54
2020/12/21 06:18:34;;;;;;;15.43;8.43;;;154.30;1894.40;;;;;;5071143;28;20040;-54
2020/12/21 06:20:59;;;;;;;13.65;8.35;;;154.30;1894.40;;;;;;5073317;28;20024;-54
2020/12/21 06:23:32;;;;;;;14.45;8.82;;;154.40;1894.40;;;;;;5073890;28;20031;-54
2020/12/21 06:26:14;;;;;;;13.77;8.88;;;154.40;1894.40;;;;;;5056119;28;20099;-54
2020/12/21 06:28:40;;;;;;;14.05;8.38;;;154.50;1894.40;;;;;;5073462;28;20016;-55
2020/12/21 06:31:18;;;;;;;15.07;9.73;;;179.20;1868.80;;;;;;5073849;28;20020;-54
2020/12/21 06:33:45;;;;;;;13.50;8.65;;;179.30;1868.80;;;;;;5073451;28;20390;-55
2020/12/21 06:36:12;;;;;;;17.17;9.63;;;179.40;1868.80;;;;;;5073657;28;20374;-55
2020/12/21 06:38:47;;;;;;;17.55;9.25;;;179.40;1843.20;;;;;;5073298;28;20036;-54
2020/12/21 06:41:17;;;;;;;16.35;9.45;;;179.20;1868.80;;;;;;5061656;28;20028;-54
2020/12/21 06:43:56;;;;;;;15.95;9.35;;;179.40;1868.80;;;;;;5073395;28;20103;-53
2020/12/21 06:46:22;;;;;;;28.67;12.00;;;179.40;1843.20;;;;;;5061148;28;20028;-54
2020/12/21 06:49:01;;;;;;;20.60;11.30;;;179.50;1868.80;;;;;;5055010;28;20034;-53
2020/12/21 06:51:27;;;;;;;19.30;10.65;;;179.40;1868.80;;;;;;5073470;28;20478;-53
2020/12/21 06:53:57;;;;;;;22.13;11.93;;;179.60;1843.20;;;;;;5073603;28;20025;-53
2020/12/21 06:56:26;;;;;;;18.63;10.48;;;179.50;1843.20;;;;;;5073264;28;20095;-54
2020/12/21 06:58:58;;;;;;;19.85;10.82;;;179.60;1868.80;;;;;;5072812;28;20041;-53
2020/12/21 07:01:26;;;;;;;20.77;11.95;;;179.60;1843.20;;;;;;5054479;28;20505;-55
2020/12/21 07:03:55;;;;;;;22.85;11.90;;;179.90;1817.60;;;;;;5073113;28;20069;-57
2020/12/21 07:06:21;;;;;;;19.05;10.70;;;180.00;1817.60;;;;;;5072936;28;20045;-55
2020/12/21 07:08:47;;;;;;;18.15;10.68;;;204.80;1792.00;;;;;;5055243;28;20036;-54
2020/12/21 07:11:17;;;;;;;20.85;12.20;;;204.90;1766.40;;;;;;5054782;28;20033;-54
2020/12/21 07:13:44;;;;;;;21.38;12.02;;;180.10;1766.40;;;;;;5072804;28;20016;-54
2020/12/21 07:16:10;;;;;;;19.17;11.95;;;180.10;1792.00;;;;;;5073134;28;20028;-55
2020/12/21 07:18:36;;;;;;;21.27;12.20;;;204.90;1766.40;;;;;;5072882;28;20033;-54
2020/12/21 07:21:06;;;;;;;18.42;11.57;;;204.80;1766.40;;;;;;5072822;28;20474;-56
2020/12/21 07:23:32;;;;;;;19.15;10.52;;;205.10;1740.80;;;;;;5072867;28;20086;-55
2020/12/21 07:25:58;;;;;;;21.35;11.20;;;205.20;1715.20;;;;;;5073046;28;20056;-54
2020/12/21 07:28:26;;;;;;;22.50;10.55;;;205.10;1740.80;;;;;;5072415;28;20016;-54
2020/12/21 07:30:52;;;;;;;19.45;10.75;;;205.10;1715.20;;;;;;5072380;28;20012;-53
2020/12/21 07:33:18;;;;;;;18.27;10.68;;;205.10;1715.20;;;;;;5072583;28;20037;-54
2020/12/21 07:35:54;;;;;;;19.15;10.93;;;205.30;1715.20;;;;;;5072559;28;20019;-54
2020/12/21 07:38:22;;;;;;;17.48;10.45;;;205.30;1715.20;;;;;;5072152;28;20044;-54
2020/12/21 07:40:48;;;;;;;19.65;10.57;;;205.30;1715.20;;;;;;5072616;28;20488;-53
2020/12/21 07:43:20;;;;;;;20.45;11.35;;;205.30;1689.60;;;;;;5072638;28;20097;-54
2020/12/21 07:45:49;;;;;;;21.05;12.02;;;205.20;1715.20;;;;;;5071823;28;20356;-53
2020/12/21 07:48:16;;;;;;;17.15;11.13;;;205.00;1715.20;;;;;;5072315;28;20463;-53
2020/12/21 07:50:42;;;;;;;27.58;12.05;;;205.00;1740.80;;;;;;5071960;28;20471;-54
2020/12/21 07:53:09;;;;;;;17.15;10.80;;;204.90;1740.80;;;;;;5072516;28;20028;-53
2020/12/21 07:55:35;;;;;;;18.65;11.00;;;205.20;1715.20;;;;;;5054378;28;20024;-53
2020/12/21 07:58:01;;;;;;;22.60;12.32;;;205.10;1715.20;;;;;;5072590;28;20116;-53
2020/12/21 08:00:27;;;;;;;17.70;11.00;;;205.00;1715.20;;;;;;5072475;28;20024;-53
2020/12/21 08:02:59;;;;;;;20.52;11.15;;;205.10;1740.80;;;;;;5072239;28;20024;-53
2020/12/21 08:05:25;;;;;;;16.15;10.40;;;205.30;1715.20;;;;;;5072259;28;20463;-53
2020/12/21 08:07:51;;;;;;;15.55;9.32;;;205.30;1689.60;;;;;;5054123;28;20020;-53
2020/12/21 08:10:19;;;;;;;18.60;10.75;;;205.30;1689.60;;;;;;5053970;28;20386;-53
2020/12/21 08:12:45;;;;;;;18.08;10.52;;;205.20;1689.60;;;;;;5071710;28;20081;-53
2020/12/21 08:15:11;;;;;;;14.93;9.70;;;205.30;1689.60;;;;;;5072396;28;20421;-52
2020/12/21 08:17:37;;;;;;;23.20;11.20;;;205.20;1689.60;;;;;;5072194;28;20044;-53
2020/12/21 08:20:07;;;;;;;16.98;10.48;;;205.20;1715.20;;;;;;5072099;28;20099;-53
2020/12/21 08:22:36;;;;;;;16.85;10.25;;;205.30;1689.60;;;;;;5072068;28;20024;-52
2020/12/21 08:25:10;;;;;;;15.25;10.30;;;205.40;1689.60;;;;;;5054217;28;20031;-53
2020/12/21 08:27:37;;;;;;;16.30;10.82;;;205.60;1664.00;;;;;;5053994;28;20039;-53
2020/12/21 08:30:10;;;;;;;17.15;9.40;;;205.60;1664.00;;;;;;5071750;28;20013;-53
2020/12/21 08:32:36;;;;;;;19.25;10.40;;;205.70;1638.40;;;;;;5072274;28;20067;-53
2020/12/21 08:35:02;;;;;;;20.38;11.63;;;230.40;1638.40;;;;;;5072129;28;20064;-53
2020/12/21 08:37:28;;;;;;;20.98;12.07;;;230.60;1612.80;;;;;;5070593;28;20074;-54
2020/12/21 08:39:53;;;;;;;18.30;11.23;;;230.70;1587.20;;;;;;5072021;28;20017;-53
2020/12/21 08:42:19;;;;;;;16.13;10.32;;;230.80;1587.20;;;;;;5071740;28;20107;-55
2020/12/21 08:44:48;;;;;;;18.95;10.95;;;230.90;1561.60;;;;;;5070834;28;20474;-55
2020/12/21 08:47:14;;;;;;;;;;;231.30;1536.00;;;;;;5072213;28;20052;-54
2020/12/21 08:49:39;;;;;;;20.15;11.50;;;256.00;1510.40;;;;;;5071917;28;19948;-55
2020/12/21 08:52:07;;;;;;;18.75;12.07;;;256.00;1510.40;;;;;;5053749;28;20067;-56
2020/12/21 08:54:33;;;;;;;18.15;11.05;;;256.00;1510.40;;;;;;5071988;28;20078;-53
2020/12/21 08:56:58;;;;;;;19.83;11.65;;;256.10;1510.40;;;;;;5071325;28;20024;-55
2020/12/21 08:59:25;;;;;;;17.27;12.23;;;231.20;1536.00;;;;;;5072167;28;20094;-55
2020/12/21 09:01:51;;;;;;;19.42;10.73;;;256.10;1510.40;;;;;;5053486;28;20428;-54
2020/12/21 09:04:17;;;;;;;25.30;11.27;;;256.40;1510.40;;;;;;5074512;28;20025;-54
2020/12/21 09:06:42;;;;;;;20.25;12.00;;;256.30;1484.80;;;;;;5074872;28;20392;-54
2020/12/21 09:09:09;;;;;;;20.92;10.45;;;256.30;1510.40;;;;;;5041266;28;20398;-54
2020/12/21 09:11:35;;;;;;;16.23;10.00;;;256.40;1484.80;;;;;;5075382;28;20016;-53
2020/12/21 09:14:01;;;;;;;17.60;10.63;;;256.50;1484.80;;;;;;5075150;28;20047;-53
2020/12/21 09:16:30;;;;;;;18.83;11.00;;;256.50;1484.80;;;;;;5075387;28;20043;-53
2020/12/21 09:18:57;;;;;;;17.40;11.20;;;256.50;1484.80;;;;;;5075196;28;20036;-53
2020/12/21 09:21:28;;;;;;;18.63;12.35;;;256.70;1484.80;;;;;;5075145;28;20028;-55
2020/12/21 09:23:56;;;;;;;17.75;11.50;;;256.80;1459.20;;;;;;5075146;28;20035;-53
2020/12/21 09:26:23;;;;;;;19.73;11.15;;;256.60;1484.80;;;;;;5074750;28;20020;-53
2020/12/21 09:28:50;;;;;;;18.08;10.82;;;256.70;1459.20;;;;;;5056718;28;20459;-53
2020/12/21 09:31:17;;;;;;;17.55;10.65;;;256.80;1459.20;;;;;;5074311;28;20471;-53
2020/12/21 09:33:43;;;;;;;16.42;10.02;;;256.70;1484.80;;;;;;5075008;28;20120;-53
2020/12/21 09:36:10;;;;;;;19.83;12.18;;;281.60;1484.80;;;;;;5074244;28;20099;-53
2020/12/21 09:38:36;;;;;;;19.83;11.57;;;281.70;1459.20;;;;;;5074788;28;20059;-54
2020/12/21 09:41:03;;;;;;;20.50;12.02;;;281.70;1459.20;;;;;;5074522;28;20473;-53
2020/12/21 09:43:28;;;;;;;20.73;11.25;;;281.90;1459.20;;;;;;5074662;28;20119;-53
2020/12/21 09:45:54;;;;;;;19.67;12.15;;;282.10;1433.60;;;;;;5074172;28;20103;-53
2020/12/21 09:48:20;;;;;;;19.38;12.10;;;282.00;1433.60;;;;;;5074471;28;20470;-53
2020/12/21 09:50:46;;;;;;;18.02;11.00;;;282.20;1408.00;;;;;;5074668;28;20542;-53
2020/12/21 09:53:12;;;;;;;17.50;10.93;;;282.00;1433.60;;;;;;5074152;28;20020;-53
2020/12/21 09:55:38;;;;;;;19.45;12.15;;;281.80;1433.60;;;;;;5074694;28;20031;-54
2020/12/21 09:58:05;;;;;;;21.27;13.43;;;282.10;1433.60;;;;;;5074144;28;20043;-55
2020/12/21 10:00:31;;;;;;;19.60;11.85;;;282.10;1433.60;;;;;;5074239;28;20021;-53
2020/12/21 10:02:56;;;;;;;18.38;12.13;;;281.90;1433.60;;;;;;5074158;28;20025;-54
2020/12/21 10:05:22;;;;;;;17.13;11.27;;;281.80;1459.20;;;;;;5065081;28;20336;-53
2020/12/21 10:07:48;;;;;;;20.40;12.25;;;281.60;1484.80;;;;;;5074387;28;20028;-53
2020/12/21 10:10:14;;;;;;;19.40;11.40;;;256.90;1459.20;;;;;;5074317;28;20017;-53
2020/12/21 10:12:40;;;;;;;15.07;9.75;;;256.70;1484.80;;;;;;5073865;28;20029;-54
2020/12/21 10:15:05;;;;;;;16.92;10.98;;;256.70;1484.80;;;;;;5074322;28;20021;-54
2020/12/21 10:17:32;;;;;;;20.27;11.73;;;256.50;1510.40;;;;;;5073918;28;20123;-53
2020/12/21 10:19:58;;;;;;;18.38;11.18;;;256.50;1510.40;;;;;;5074247;28;20355;-53
2020/12/21 10:22:23;;;;;;;25.25;11.85;;;256.60;1484.80;;;;;;5073705;28;20027;-54
2020/12/21 10:24:49;;;;;;;20.92;11.90;;;256.90;1484.80;;;;;;5074042;28;20044;-53
2020/12/21 10:27:15;;;;;;;19.75;11.70;;;281.60;1484.80;;;;;;5073693;28;20024;-53
2020/12/21 10:29:40;;;;;;;18.73;12.27;;;281.80;1484.80;;;;;;5073937;28;20112;-53
2020/12/21 10:32:06;;;;;;;17.70;11.10;;;282.10;1459.20;;;;;;5073642;28;20036;-53
2020/12/21 10:34:32;;;;;;;16.33;11.02;;;282.10;1459.20;;;;;;5073518;28;20028;-53
2020/12/21 10:36:57;;;;;;;19.98;10.93;;;281.90;1459.20;;;;;;5073780;28;20086;-53
2020/12/21 10:39:23;;;;;;;15.65;10.45;;;282.00;1433.60;;;;;;5073822;28;20028;-53
2020/12/21 10:41:49;;;;;;;19.30;12.60;;;282.00;1459.20;;;;;;5073310;28;20024;-53
2020/12/21 10:44:15;;;;;;;18.80;11.80;;;282.00;1459.20;;;;;;5073551;28;20017;-53
2020/12/21 10:46:42;;;;;;;16.58;11.55;;;282.00;1459.20;;;;;;5073211;28;20025;-53
2020/12/21 10:49:08;;;;;;;21.70;12.77;;;282.10;1459.20;;;;;;5073471;28;20096;-53
2020/12/21 10:51:34;;;;;;;24.25;14.82;;;282.00;1459.20;;;;;;5072949;28;20109;-54
2020/12/21 10:54:01;;;;;;;22.70;12.98;;;282.00;1433.60;;;;;;5073499;28;20036;-54
2020/12/21 10:56:27;;;;;;;20.25;11.32;;;282.10;1433.60;;;;;;5073255;28;20035;-54
2020/12/21 10:58:54;;;;;;;19.50;12.02;;;282.30;1433.60;;;;;;5073191;28;20360;-53
2020/12/21 11:01:20;;;;;;;19.92;12.13;;;282.30;1408.00;;;;;;5072835;28;20029;-53
2020/12/21 11:03:46;;;;;;;17.77;11.40;;;282.40;1408.00;;;;;;5072927;28;20478;-55
2020/12/21 11:06:18;;;;;;;18.52;11.63;;;307.30;1408.00;;;;;;5072880;28;20052;-53
2020/12/21 11:08:43;;;;;;;16.73;11.23;;;307.60;1408.00;;;;;;5073180;28;20099;-55
2020/12/21 11:11:12;;;;;;;17.27;11.35;;;307.70;1356.80;;;;;;5072603;28;20136;-53
2020/12/21 11:13:41;;;;;;;17.13;11.57;;;307.60;1356.80;;;;;;5072980;28;20031;-53
2020/12/21 11:16:09;;;;;;;18.00;11.98;;;307.60;1382.40;;;;;;5072760;28;20112;-53
2020/12/21 11:18:35;;;;;;;19.45;12.73;;;307.60;1356.80;;;;;;5073034;28;20054;-54
2020/12/21 11:21:00;;;;;;;24.58;15.10;;;307.40;1408.00;;;;;;5072682;28;20020;-53
2020/12/21 11:23:26;;;;;;;19.25;12.85;;;307.50;1408.00;;;;;;5072813;28;20024;-53
2020/12/21 11:25:51;;;;;;;20.00;12.45;;;307.50;1408.00;;;;;;5071986;28;20029;-55
2020/12/21 11:28:17;;;;;;;23.15;13.43;;;307.50;1382.40;;;;;;5072601;28;20062;-53
2020/12/21 11:30:43;;;;;;;19.63;13.20;;;307.20;1408.00;;;;;;5072389;28;20017;-53
2020/12/21 11:33:08;;;;;;;20.85;13.25;;;282.50;1408.00;;;;;;5072765;28;20032;-55
2020/12/21 11:35:34;;;;;;;21.42;13.60;;;307.20;1433.60;;;;;;5070312;28;20082;-56
2020/12/21 11:38:00;;;;;;;22.60;14.05;;;307.30;1408.00;;;;;;5072628;28;20115;-55
2020/12/21 11:40:25;;;;;;;17.45;12.20;;;307.20;1433.60;;;;;;5072149;28;20096;-53
2020/12/21 11:42:51;;;;;;;20.80;13.98;;;307.30;1433.60;;;;;;5072548;28;20110;-55
2020/12/21 11:45:16;;;;;;;18.55;11.80;;;307.50;1408.00;;;;;;5072543;28;20012;-55
2020/12/21 11:47:42;;;;;;;21.00;13.98;;;307.70;1382.40;;;;;;5072261;28;20021;-53
2020/12/21 11:50:08;;;;;;;21.20;12.57;;;307.80;1382.40;;;;;;5072042;28;20462;-53
2020/12/21 11:52:34;;;;;;;19.88;12.50;;;308.10;1356.80;;;;;;5072266;28;20102;-53
2020/12/21 11:54:59;;;;;;;18.02;11.73;;;308.10;1331.20;;;;;;5072362;28;20031;-55
2020/12/21 11:57:28;;;;;;;21.67;13.13;;;308.10;1331.20;;;;;;5072166;28;20040;-54
2020/12/21 11:59:55;;;;;;;18.10;12.85;;;308.00;1356.80;;;;;;5072434;28;20032;-56
2020/12/21 12:02:21;;;;;;;20.67;13.45;;;308.00;1356.80;;;;;;5072508;28;20106;-54